Anabel, Missouri
Current Conditions -  °F | °C
As of 12:55 PM on Thursday 27 Nov 2014 (Local Time) from KIRK Reporting Station
Clear Clear  
Wind Chill: 17°   Ceiling: Unl
Heat Index: 26°   Visibility: 10mi
Dew Point: 16°   Wind: 9mph
Humidity: 66%   Direction: 330°NNW
Pressure: 30.47"   Gusts: NA
Location:  39.75°N, 92.34°W
Report Text: KIRK 271855Z AUTO 33008KT 10SM CLR M03/M09 A3047 RMK AO2 SLP333 T10331089
Loading
Personal Weather Stations






























Interactive Weather Map New forecast layout! Learn more

10-Day Weather Forecast

Advertisements
Track Severe Weather on mobile